createdAt,value
2022-09-05T00:02:49.399Z,13.70
2022-09-05T00:05:52.682Z,13.70
2022-09-05T00:08:58.034Z,13.60
2022-09-05T00:11:49.981Z,13.60
2022-09-05T00:15:16.460Z,13.60
2022-09-05T00:20:28.573Z,13.50
2022-09-05T00:24:36.937Z,13.40
2022-09-05T00:25:31.714Z,13.40
2022-09-05T00:28:29.079Z,13.40
2022-09-05T00:31:56.589Z,13.30
2022-09-05T00:34:59.638Z,13.30
2022-09-05T00:37:48.701Z,13.20
2022-09-05T00:40:41.099Z,13.20
2022-09-05T00:43:32.015Z,13.20
2022-09-05T00:46:24.690Z,13.10
2022-09-05T00:49:22.502Z,13.10
2022-09-05T00:52:14.621Z,13.10
2022-09-05T00:55:14.122Z,13.10
2022-09-05T00:58:12.286Z,13.10
2022-09-05T01:01:00.677Z,13.10
2022-09-05T01:04:05.692Z,13.10
2022-09-05T01:07:09.331Z,13.00
2022-09-05T01:10:09.313Z,13.00
2022-09-05T01:13:15.160Z,13.00
2022-09-05T01:16:10.470Z,13.00
2022-09-05T01:19:15.836Z,12.90
2022-09-05T01:22:25.578Z,12.90
2022-09-05T01:25:32.151Z,12.90
2022-09-05T01:29:18.202Z,12.90
2022-09-05T01:31:40.347Z,12.90
2022-09-05T01:34:35.255Z,12.90
2022-09-05T01:37:33.538Z,12.90
2022-09-05T01:40:28.771Z,12.80
2022-09-05T01:43:25.746Z,12.80
2022-09-05T01:46:29.676Z,12.70
2022-09-05T01:49:25.992Z,12.70
2022-09-05T01:52:25.989Z,12.70
2022-09-05T01:55:32.090Z,12.70
2022-09-05T01:58:32.340Z,12.60
2022-09-05T02:01:32.317Z,12.60
2022-09-05T02:04:52.662Z,12.60
2022-09-05T02:07:57.220Z,12.50
2022-09-05T02:11:06.354Z,12.50
2022-09-05T02:14:02.024Z,12.40
2022-09-05T02:16:50.123Z,12.40
2022-09-05T02:19:46.896Z,12.40
2022-09-05T02:22:43.831Z,12.40
2022-09-05T02:26:01.228Z,12.30
2022-09-05T02:28:56.784Z,12.30
2022-09-05T02:31:48.051Z,12.30
2022-09-05T02:34:42.485Z,12.20
2022-09-05T02:38:58.065Z,12.20
2022-09-05T02:45:01.754Z,12.20
2022-09-05T02:45:12.356Z,12.20
2022-09-05T02:47:18.954Z,12.10
2022-09-05T02:53:59.126Z,12.10
2022-09-05T02:57:26.265Z,12.00
2022-09-05T02:57:39.662Z,12.00
2022-09-05T03:00:16.728Z,11.90
2022-09-05T03:03:18.613Z,11.90
2022-09-05T03:06:34.488Z,11.90
2022-09-05T03:09:37.101Z,11.90
2022-09-05T03:13:04.739Z,11.80
2022-09-05T03:16:27.942Z,11.80
2022-09-05T03:20:03.295Z,11.80
2022-09-05T03:23:20.075Z,11.80
2022-09-05T03:26:39.503Z,11.70
2022-09-05T03:30:05.996Z,11.60
2022-09-05T03:33:32.430Z,11.60
2022-09-05T03:37:03.388Z,11.50
2022-09-05T03:40:24.946Z,11.50
2022-09-05T03:43:44.182Z,11.40
2022-09-05T03:46:52.386Z,11.40
2022-09-05T03:52:47.100Z,11.30
2022-09-05T03:57:15.452Z,11.30
2022-09-05T03:57:16.929Z,11.20
2022-09-05T04:00:09.377Z,11.20
2022-09-05T04:08:13.955Z,11.20
2022-09-05T04:08:16.469Z,11.20
2022-09-05T04:09:53.226Z,11.20
2022-09-05T04:12:51.021Z,11.20
2022-09-05T04:15:43.238Z,11.10
2022-09-05T04:18:37.394Z,11.10
2022-09-05T04:21:28.698Z,11.10
2022-09-05T04:24:28.194Z,11.10
2022-09-05T04:27:32.803Z,11.10
2022-09-05T04:30:40.483Z,11.10
2022-09-05T04:33:36.502Z,11.20
2022-09-05T04:36:28.230Z,11.50
2022-09-05T04:39:27.408Z,11.70
2022-09-05T04:42:25.527Z,11.90
2022-09-05T04:45:17.456Z,12.10
2022-09-05T04:48:22.317Z,12.40
2022-09-05T04:51:13.056Z,12.80
2022-09-05T04:54:19.347Z,13.10
2022-09-05T04:57:18.031Z,13.50
2022-09-05T05:04:43.955Z,13.90
2022-09-05T05:06:18.514Z,14.20
2022-09-05T05:06:44.893Z,14.60
2022-09-05T05:09:35.980Z,15.00
2022-09-05T05:17:55.595Z,15.20
2022-09-05T05:18:13.923Z,15.40
2022-09-05T05:19:06.006Z,15.60
2022-09-05T05:22:06.812Z,15.80
2022-09-05T05:24:57.855Z,15.90
2022-09-05T05:27:50.866Z,16.10
2022-09-05T05:30:39.825Z,16.20
2022-09-05T05:33:29.609Z,16.40
2022-09-05T05:36:21.093Z,16.60
2022-09-05T05:39:11.850Z,16.80
2022-09-05T05:42:19.895Z,16.90
2022-09-05T05:45:17.060Z,17.20
2022-09-05T05:48:07.286Z,17.40
2022-09-05T05:51:06.781Z,17.70
2022-09-05T05:54:00.378Z,18.00
2022-09-05T05:57:20.121Z,18.20
2022-09-05T06:00:15.517Z,18.40
2022-09-05T06:03:38.871Z,18.70
2022-09-05T06:06:38.789Z,19.00
2022-09-05T06:14:50.078Z,19.10
2022-09-05T06:15:05.488Z,19.30
2022-09-05T06:17:37.439Z,19.40
2022-09-05T06:22:06.239Z,19.60
2022-09-05T06:24:53.673Z,19.70
2022-09-05T06:28:19.286Z,20.00
2022-09-05T06:31:29.287Z,20.30
2022-09-05T06:34:35.551Z,20.40
2022-09-05T06:37:34.658Z,20.70
2022-09-05T06:40:29.143Z,20.80
2022-09-05T06:43:32.463Z,21.00
2022-09-05T06:46:55.617Z,21.20
2022-09-05T06:49:50.457Z,21.40
2022-09-05T06:53:19.673Z,21.50
2022-09-05T06:56:32.179Z,21.80
2022-09-05T06:59:53.882Z,22.00
2022-09-05T07:03:00.086Z,22.30
2022-09-05T07:05:56.503Z,22.60
2022-09-05T07:08:53.861Z,23.00
2022-09-05T07:11:49.591Z,23.20
2022-09-05T07:14:42.023Z,23.30
2022-09-05T07:17:59.743Z,23.30
2022-09-05T07:21:16.443Z,23.40
2022-09-05T07:24:08.787Z,23.40
2022-09-05T07:27:00.626Z,23.60
2022-09-05T07:29:53.332Z,23.90
2022-09-05T07:32:52.701Z,24.10
2022-09-05T07:35:42.133Z,24.20
2022-09-05T07:38:50.293Z,24.20
2022-09-05T07:41:42.292Z,24.20
2022-09-05T07:44:33.588Z,24.30
2022-09-05T07:47:24.648Z,24.40
2022-09-05T07:54:11.748Z,24.50
2022-09-05T07:56:51.146Z,24.60
2022-09-05T07:57:17.502Z,24.60
2022-09-05T07:59:49.121Z,24.60
2022-09-05T08:02:36.014Z,24.50
2022-09-05T08:05:35.003Z,24.50
2022-09-05T08:08:25.588Z,24.60
2022-09-05T08:11:25.744Z,24.70
2022-09-05T08:14:44.828Z,24.80
2022-09-05T08:17:30.941Z,24.80
2022-09-05T08:20:30.359Z,24.80
2022-09-05T08:23:44.209Z,24.80
2022-09-05T08:26:38.196Z,24.70
2022-09-05T08:29:32.496Z,24.70
2022-09-05T08:32:24.216Z,24.70
2022-09-05T08:35:18.383Z,24.70
2022-09-05T08:38:06.137Z,24.60
2022-09-05T08:41:03.988Z,24.50
2022-09-05T08:46:37.404Z,24.40
2022-09-05T08:47:18.065Z,24.40
2022-09-05T08:50:26.915Z,24.40
2022-09-05T08:53:41.360Z,24.50
2022-09-05T08:56:39.162Z,24.50
2022-09-05T08:59:34.375Z,24.40
2022-09-05T09:02:51.111Z,24.20
2022-09-05T09:06:21.692Z,24.00
2022-09-05T09:09:18.412Z,23.90
2022-09-05T09:12:13.832Z,23.80
2022-09-05T09:15:01.914Z,23.70
2022-09-05T09:17:50.915Z,23.70
2022-09-05T09:20:48.934Z,23.80
2022-09-05T09:23:48.450Z,23.80
2022-09-05T09:26:43.065Z,23.80
2022-09-05T09:29:34.442Z,23.70
2022-09-05T09:32:24.419Z,23.70
2022-09-05T09:35:21.409Z,23.70
2022-09-05T09:38:24.172Z,23.80
2022-09-05T09:41:30.952Z,23.90
2022-09-05T09:44:53.469Z,23.90
2022-09-05T09:48:16.350Z,24.00
2022-09-05T09:51:26.920Z,24.10
2022-09-05T09:54:51.494Z,24.10
2022-09-05T09:58:01.178Z,24.00
2022-09-05T10:00:55.177Z,24.10
2022-09-05T10:10:32.966Z,24.10
2022-09-05T10:10:54.221Z,24.10
2022-09-05T10:11:52.165Z,24.00
2022-09-05T10:15:02.607Z,24.00
2022-09-05T10:18:34.825Z,23.90
2022-09-05T10:25:27.998Z,23.70
2022-09-05T10:28:28.489Z,23.70
2022-09-05T10:32:36.066Z,23.70
2022-09-05T10:35:13.680Z,23.60
2022-09-05T10:37:42.477Z,23.50
2022-09-05T10:40:36.289Z,23.50
2022-09-05T10:43:50.863Z,23.30
2022-09-05T10:46:51.213Z,23.10
2022-09-05T10:49:44.345Z,22.90
2022-09-05T10:52:37.623Z,22.90
2022-09-05T10:55:26.671Z,23.00
2022-09-05T10:58:33.849Z,23.10
2022-09-05T11:02:26.103Z,23.10
2022-09-05T11:04:50.364Z,23.10
2022-09-05T11:07:42.937Z,23.10
2022-09-05T11:10:36.020Z,23.10
2022-09-05T11:13:39.666Z,23.10
2022-09-05T11:16:36.352Z,23.10
2022-09-05T11:19:31.502Z,23.00
2022-09-05T11:22:23.916Z,22.80
2022-09-05T11:25:18.993Z,22.80
2022-09-05T11:28:34.713Z,22.70
2022-09-05T11:32:08.485Z,22.70
2022-09-05T11:39:50.314Z,22.60
2022-09-05T11:39:53.152Z,22.70
2022-09-05T11:42:36.781Z,22.60
2022-09-05T11:45:42.946Z,22.50
2022-09-05T11:49:01.667Z,22.40
2022-09-05T11:52:12.707Z,22.40
2022-09-05T11:55:53.070Z,22.30
2022-09-05T11:59:11.052Z,22.20
2022-09-05T12:02:24.046Z,22.10
2022-09-05T12:05:48.410Z,22.10
2022-09-05T12:08:40.792Z,22.00
2022-09-05T12:11:44.583Z,21.90
2022-09-05T12:14:42.433Z,21.90
2022-09-05T12:17:41.973Z,21.90
2022-09-05T12:20:43.166Z,21.90
2022-09-05T12:23:58.018Z,21.90
2022-09-05T12:27:44.878Z,22.00
2022-09-05T12:30:07.483Z,21.90
2022-09-05T12:36:05.532Z,21.80
2022-09-05T12:38:44.981Z,21.80
2022-09-05T12:40:56.096Z,21.80
2022-09-05T12:43:01.760Z,21.80
2022-09-05T12:48:56.223Z,21.80
2022-09-05T12:51:55.198Z,21.80
2022-09-05T12:54:48.571Z,21.70
2022-09-05T13:02:55.117Z,21.70
2022-09-05T13:03:06.314Z,21.70
2022-09-05T13:04:17.442Z,21.70
2022-09-05T13:07:10.823Z,21.70
2022-09-05T13:12:42.559Z,21.70
2022-09-05T13:14:48.561Z,21.60
2022-09-05T13:16:24.482Z,21.60
2022-09-05T13:19:40.462Z,21.60
2022-09-05T13:22:29.962Z,21.60
2022-09-05T13:25:23.007Z,21.60
2022-09-05T13:28:13.927Z,21.60
2022-09-05T13:37:06.200Z,21.60
2022-09-05T13:38:03.244Z,21.50
2022-09-05T13:38:07.305Z,21.50
2022-09-05T13:40:43.210Z,21.50
2022-09-05T13:43:36.464Z,21.50
2022-09-05T13:46:30.937Z,21.50
2022-09-05T13:49:27.179Z,21.40
2022-09-05T13:52:31.350Z,21.40
2022-09-05T13:55:23.901Z,21.40
2022-09-05T13:58:17.308Z,21.40
2022-09-05T14:01:45.674Z,21.40
2022-09-05T14:05:19.459Z,21.30
2022-09-05T14:08:46.245Z,21.30
2022-09-05T14:11:52.543Z,21.30
2022-09-05T14:18:20.966Z,21.30
2022-09-05T14:21:19.155Z,21.30
2022-09-05T14:24:14.500Z,21.30
2022-09-05T14:27:13.069Z,21.30
2022-09-05T14:29:47.292Z,21.40
2022-09-05T14:37:43.663Z,21.40
2022-09-05T14:37:54.598Z,21.40
2022-09-05T14:38:41.404Z,21.40
2022-09-05T14:42:03.657Z,21.30
2022-09-05T14:45:18.958Z,21.30
2022-09-05T14:48:24.947Z,21.30
2022-09-05T14:51:09.631Z,21.30
2022-09-05T14:53:58.983Z,21.20
2022-09-05T14:57:35.640Z,21.30
2022-09-05T15:02:41.038Z,21.30
2022-09-05T15:02:48.386Z,21.40
2022-09-05T15:05:20.313Z,21.40
2022-09-05T15:07:50.295Z,21.30
2022-09-05T15:12:24.504Z,21.30
2022-09-05T15:13:25.899Z,21.20
2022-09-05T15:16:02.302Z,21.10
2022-09-05T15:18:37.787Z,21.00
2022-09-05T15:21:33.260Z,20.90
2022-09-05T15:24:17.111Z,20.90
2022-09-05T15:26:53.226Z,20.80
2022-09-05T15:29:25.274Z,20.70
2022-09-05T15:32:07.595Z,20.60
2022-09-05T15:34:40.270Z,20.60
2022-09-05T15:37:31.790Z,20.60
2022-09-05T15:40:22.341Z,20.60
2022-09-05T15:42:55.083Z,20.50
2022-09-05T15:45:26.949Z,20.50
2022-09-05T15:48:18.341Z,20.50
2022-09-05T15:50:51.495Z,20.50
2022-09-05T15:53:26.202Z,20.50
2022-09-05T15:56:00.141Z,20.50
2022-09-05T15:58:53.847Z,20.50
2022-09-05T16:01:35.741Z,20.40
2022-09-05T16:07:12.183Z,20.40
2022-09-05T16:10:40.975Z,20.30
2022-09-05T16:10:48.476Z,20.30
2022-09-05T16:12:58.626Z,20.20
2022-09-05T16:19:33.504Z,20.20
2022-09-05T16:23:16.179Z,20.20
2022-09-05T16:23:26.778Z,20.10
2022-09-05T16:24:18.572Z,20.10
2022-09-05T16:26:59.913Z,20.10
2022-09-05T16:29:31.973Z,20.00
2022-09-05T16:32:22.460Z,20.00
2022-09-05T16:34:56.153Z,19.90
2022-09-05T16:37:32.047Z,19.90
2022-09-05T16:40:10.539Z,19.80
2022-09-05T16:42:46.456Z,19.80
2022-09-05T16:45:23.292Z,19.80
2022-09-05T16:48:03.863Z,19.70
2022-09-05T16:50:38.356Z,19.70
2022-09-05T16:53:30.515Z,19.60
2022-09-05T16:56:05.398Z,19.50
2022-09-05T16:58:39.991Z,19.50
2022-09-05T17:01:26.685Z,19.40
2022-09-05T17:03:58.643Z,19.40
2022-09-05T17:06:37.332Z,19.30
2022-09-05T17:09:13.566Z,19.20
2022-09-05T17:12:00.722Z,19.20
2022-09-05T17:14:35.123Z,19.10
2022-09-05T17:17:20.040Z,19.00
2022-09-05T17:20:06.211Z,18.90
2022-09-05T17:25:52.762Z,18.80
2022-09-05T17:29:25.038Z,18.60
2022-09-05T17:29:48.872Z,18.70
2022-09-05T17:31:53.536Z,18.50
2022-09-05T17:34:43.159Z,18.50
2022-09-05T17:37:24.856Z,18.40
2022-09-05T17:40:00.552Z,18.40
2022-09-05T17:42:43.732Z,18.30
2022-09-05T17:45:18.694Z,18.20
2022-09-05T17:47:49.452Z,18.20
2022-09-05T17:50:20.713Z,18.10
2022-09-05T17:53:25.897Z,18.10
2022-09-05T17:56:28.058Z,18.00
2022-09-05T17:59:08.673Z,18.00
2022-09-05T18:01:38.660Z,17.90
2022-09-05T18:04:17.902Z,17.90
2022-09-05T18:07:00.591Z,17.80
2022-09-05T18:13:14.254Z,17.80
2022-09-05T18:16:11.791Z,17.70
2022-09-05T18:21:51.758Z,17.60
2022-09-05T18:24:32.760Z,17.50
2022-09-05T18:27:47.460Z,17.50
2022-09-05T18:30:07.174Z,17.50
2022-09-05T18:32:45.539Z,17.50
2022-09-05T18:35:36.133Z,17.50
2022-09-05T18:38:50.473Z,17.40
2022-09-05T18:41:19.333Z,17.40
2022-09-05T18:44:13.889Z,17.30
2022-09-05T18:46:49.450Z,17.30
2022-09-05T18:50:21.653Z,17.20
2022-09-05T18:52:23.539Z,17.20
2022-09-05T18:55:51.082Z,17.20
2022-09-05T18:57:51.158Z,17.20
2022-09-05T19:00:35.032Z,17.00
2022-09-05T19:03:20.163Z,17.00
2022-09-05T19:06:02.902Z,17.00
2022-09-05T19:08:52.323Z,16.90
2022-09-05T19:11:28.936Z,16.90
2022-09-05T19:14:26.589Z,16.90
2022-09-05T19:16:51.169Z,16.80
2022-09-05T19:19:24.485Z,16.80
2022-09-05T19:21:57.277Z,16.70
2022-09-05T19:24:46.347Z,16.70
2022-09-05T19:30:40.699Z,16.60
2022-09-05T19:36:56.242Z,16.50
2022-09-05T19:36:58.905Z,16.60
2022-09-05T19:37:04.777Z,16.50
2022-09-05T19:40:53.482Z,16.40
2022-09-05T19:47:35.038Z,16.30
2022-09-05T19:47:36.324Z,16.40
2022-09-05T19:47:45.333Z,16.30
2022-09-05T19:50:11.470Z,16.30
2022-09-05T19:52:40.927Z,16.20
2022-09-05T19:55:21.994Z,16.20
2022-09-05T19:58:18.769Z,16.10
2022-09-05T20:00:50.425Z,16.10
2022-09-05T20:03:38.586Z,16.00
2022-09-05T20:06:29.137Z,16.00
2022-09-05T20:09:10.479Z,15.90
2022-09-05T20:11:45.622Z,15.90
2022-09-05T20:14:22.792Z,15.90
2022-09-05T20:16:55.938Z,15.80
2022-09-05T20:19:29.190Z,15.80
2022-09-05T20:22:11.477Z,15.70
2022-09-05T20:24:53.598Z,15.70
2022-09-05T20:27:27.405Z,15.70
2022-09-05T20:30:00.503Z,15.60
2022-09-05T20:32:39.611Z,15.60
2022-09-05T20:38:09.022Z,15.60
2022-09-05T20:43:12.619Z,15.50
2022-09-05T20:43:19.943Z,15.40
2022-09-05T20:44:19.263Z,15.50
2022-09-05T20:52:04.407Z,15.40
2022-09-05T20:54:19.412Z,15.40
2022-09-05T20:54:22.374Z,15.40
2022-09-05T20:55:41.242Z,15.30
2022-09-05T20:58:12.609Z,15.30
2022-09-05T21:01:19.828Z,15.30
2022-09-05T21:03:38.153Z,15.20
2022-09-05T21:06:23.646Z,15.20
2022-09-05T21:09:08.072Z,15.20
2022-09-05T21:11:36.557Z,15.20
2022-09-05T21:14:06.284Z,15.10
2022-09-05T21:16:44.998Z,15.10
2022-09-05T21:19:26.454Z,15.10
2022-09-05T21:22:06.547Z,15.10
2022-09-05T21:24:35.962Z,15.00
2022-09-05T21:27:24.378Z,15.00
2022-09-05T21:29:58.939Z,14.90
2022-09-05T21:32:38.227Z,14.90
2022-09-05T21:35:33.873Z,14.90
2022-09-05T21:38:01.616Z,14.80
2022-09-05T21:40:30.496Z,14.80
2022-09-05T21:47:34.989Z,14.80
2022-09-05T21:47:46.738Z,14.80
2022-09-05T21:48:41.516Z,14.70
2022-09-05T21:51:14.276Z,14.70
2022-09-05T21:59:13.569Z,14.70
2022-09-05T21:59:24.253Z,14.70
2022-09-05T21:59:40.040Z,14.60
2022-09-05T22:02:17.334Z,14.60
2022-09-05T22:04:47.190Z,14.50
2022-09-05T22:07:32.486Z,14.50
2022-09-05T22:10:03.265Z,14.50
2022-09-05T22:12:35.798Z,14.50
2022-09-05T22:15:26.204Z,14.40
2022-09-05T22:17:59.683Z,14.40
2022-09-05T22:20:45.615Z,14.40
2022-09-05T22:23:15.624Z,14.30
2022-09-05T22:25:44.825Z,14.30
2022-09-05T22:28:17.247Z,14.30
2022-09-05T22:30:45.849Z,14.20
2022-09-05T22:33:14.293Z,14.20
2022-09-05T22:35:42.882Z,14.20
2022-09-05T22:38:19.772Z,14.20
2022-09-05T22:40:49.705Z,14.10
2022-09-05T22:43:18.320Z,14.10
2022-09-05T22:45:46.940Z,14.10
2022-09-05T22:48:16.203Z,14.00
2022-09-05T22:50:44.832Z,14.00
2022-09-05T22:53:13.125Z,14.00
2022-09-05T22:55:43.618Z,13.90
2022-09-05T22:58:15.617Z,13.90
2022-09-05T23:00:45.082Z,13.90
2022-09-05T23:03:13.770Z,13.90
2022-09-05T23:05:42.276Z,13.90
2022-09-05T23:08:10.790Z,13.80
2022-09-05T23:10:39.737Z,13.80
2022-09-05T23:13:10.258Z,13.80
2022-09-05T23:15:40.152Z,13.70
2022-09-05T23:18:08.786Z,13.70
2022-09-05T23:20:37.414Z,13.70
2022-09-05T23:23:07.572Z,13.70
2022-09-05T23:25:37.050Z,13.70
2022-09-05T23:28:09.517Z,13.60
2022-09-05T23:30:41.171Z,13.60
2022-09-05T23:33:10.879Z,13.60
2022-09-05T23:35:39.973Z,13.50
2022-09-05T23:38:11.232Z,13.50
2022-09-05T23:40:40.238Z,13.50
2022-09-05T23:43:09.418Z,13.50
2022-09-05T23:45:39.338Z,13.50
2022-09-05T23:48:07.835Z,13.40
2022-09-05T23:50:36.190Z,13.40
2022-09-05T23:53:05.386Z,13.30
2022-09-05T23:55:34.103Z,13.40
2022-09-05T23:58:02.654Z,13.30
